sensor_id;sensor_type;location;lat;lon;timestamp;pressure;altitude;pressure_sealevel;temperature
43292;BMP280;28754;47.700;7.924;2023-07-31T00:01:16;91650.19;;;17.18
43292;BMP280;28754;47.700;7.924;2023-07-31T00:04:03;91643.25;;;17.13
43292;BMP280;28754;47.700;7.924;2023-07-31T00:06:50;91643.06;;;17.10
43292;BMP280;28754;47.700;7.924;2023-07-31T00:09:36;91639.97;;;17.08
43292;BMP280;28754;47.700;7.924;2023-07-31T00:12:23;91650.91;;;17.05
43292;BMP280;28754;47.700;7.924;2023-07-31T00:15:10;91631.97;;;16.96
43292;BMP280;28754;47.700;7.924;2023-07-31T00:17:58;91625.25;;;16.95
43292;BMP280;28754;47.700;7.924;2023-07-31T00:20:44;91617.66;;;16.85
43292;BMP280;28754;47.700;7.924;2023-07-31T00:23:31;91628.13;;;16.80
43292;BMP280;28754;47.700;7.924;2023-07-31T00:26:18;91625.03;;;16.78
43292;BMP280;28754;47.700;7.924;2023-07-31T00:29:05;91621.97;;;16.76
43292;BMP280;28754;47.700;7.924;2023-07-31T00:31:51;91642.19;;;16.74
43292;BMP280;28754;47.700;7.924;2023-07-31T00:34:38;91628.00;;;16.72
43292;BMP280;28754;47.700;7.924;2023-07-31T00:37:25;91632.91;;;16.73
43292;BMP280;28754;47.700;7.924;2023-07-31T00:40:12;91625.41;;;16.72
43292;BMP280;28754;47.700;7.924;2023-07-31T00:43:00;91618.44;;;16.72
43292;BMP280;28754;47.700;7.924;2023-07-31T00:45:47;91619.22;;;16.73
43292;BMP280;28754;47.700;7.924;2023-07-31T00:48:35;91611.72;;;16.71
43292;BMP280;28754;47.700;7.924;2023-07-31T00:51:22;91606.84;;;16.70
43292;BMP280;28754;47.700;7.924;2023-07-31T00:54:11;91609.44;;;16.70
43292;BMP280;28754;47.700;7.924;2023-07-31T00:57:00;91607.44;;;16.67
43292;BMP280;28754;47.700;7.924;2023-07-31T00:59:48;91623.69;;;16.67
43292;BMP280;28754;47.700;7.924;2023-07-31T01:02:36;91608.19;;;16.67
43292;BMP280;28754;47.700;7.924;2023-07-31T01:05:43;91604.38;;;16.65
43292;BMP280;28754;47.700;7.924;2023-07-31T01:09:11;91614.13;;;16.68
43292;BMP280;28754;47.700;7.924;2023-07-31T01:12:06;91607.16;;;16.68
43292;BMP280;28754;47.700;7.924;2023-07-31T01:15:08;91604.94;;;16.62
43292;BMP280;28754;47.700;7.924;2023-07-31T01:17:57;91603.41;;;16.61
43292;BMP280;28754;47.700;7.924;2023-07-31T01:20:54;91604.75;;;16.58
43292;BMP280;28754;47.700;7.924;2023-07-31T01:24:08;91601.47;;;16.53
43292;BMP280;28754;47.700;7.924;2023-07-31T01:27:15;91604.25;;;16.56
43292;BMP280;28754;47.700;7.924;2023-07-31T01:30:16;91597.47;;;16.60
43292;BMP280;28754;47.700;7.924;2023-07-31T01:33:03;91598.22;;;16.61
43292;BMP280;28754;47.700;7.924;2023-07-31T01:35:54;91577.16;;;16.54
43292;BMP280;28754;47.700;7.924;2023-07-31T01:38:41;91583.38;;;16.53
43292;BMP280;28754;47.700;7.924;2023-07-31T01:41:29;91585.19;;;16.52
43292;BMP280;28754;47.700;7.924;2023-07-31T01:44:15;91574.09;;;16.52
43292;BMP280;28754;47.700;7.924;2023-07-31T01:47:02;91579.38;;;16.47
43292;BMP280;28754;47.700;7.924;2023-07-31T01:49:49;91574.47;;;16.46
43292;BMP280;28754;47.700;7.924;2023-07-31T01:52:36;91582.50;;;16.44
43292;BMP280;28754;47.700;7.924;2023-07-31T01:55:23;91571.41;;;16.44
43292;BMP280;28754;47.700;7.924;2023-07-31T01:58:12;91566.25;;;16.44
43292;BMP280;28754;47.700;7.924;2023-07-31T02:09:22;91550.94;;;16.34
43292;BMP280;28754;47.700;7.924;2023-07-31T02:12:09;91551.88;;;16.38
43292;BMP280;28754;47.700;7.924;2023-07-31T02:14:56;91551.97;;;16.33
43292;BMP280;28754;47.700;7.924;2023-07-31T02:17:42;91544.81;;;16.30
43292;BMP280;28754;47.700;7.924;2023-07-31T02:20:29;91553.53;;;16.34
43292;BMP280;28754;47.700;7.924;2023-07-31T02:23:16;91548.63;;;16.32
43292;BMP280;28754;47.700;7.924;2023-07-31T02:26:03;91546.31;;;16.31
43292;BMP280;28754;47.700;7.924;2023-07-31T02:28:50;91541.75;;;16.28
43292;BMP280;28754;47.700;7.924;2023-07-31T02:31:37;91541.00;;;16.27
43292;BMP280;28754;47.700;7.924;2023-07-31T02:34:25;91554.19;;;16.26
43292;BMP280;28754;47.700;7.924;2023-07-31T02:37:12;91536.66;;;16.23
43292;BMP280;28754;47.700;7.924;2023-07-31T02:39:59;91535.72;;;16.19
43292;BMP280;28754;47.700;7.924;2023-07-31T02:42:48;91529.28;;;16.16
43292;BMP280;28754;47.700;7.924;2023-07-31T02:45:35;91523.63;;;16.14
43292;BMP280;28754;47.700;7.924;2023-07-31T02:48:22;91519.78;;;16.12
43292;BMP280;28754;47.700;7.924;2023-07-31T02:51:08;91510.22;;;16.13
43292;BMP280;28754;47.700;7.924;2023-07-31T02:53:55;91535.22;;;16.17
43292;BMP280;28754;47.700;7.924;2023-07-31T02:56:42;91534.25;;;16.13
43292;BMP280;28754;47.700;7.924;2023-07-31T02:59:29;91532.50;;;16.09
43292;BMP280;28754;47.700;7.924;2023-07-31T03:02:15;91518.91;;;16.03
43292;BMP280;28754;47.700;7.924;2023-07-31T03:05:02;91536.91;;;16.08
43292;BMP280;28754;47.700;7.924;2023-07-31T03:07:49;91527.13;;;16.05
43292;BMP280;28754;47.700;7.924;2023-07-31T03:10:36;91521.50;;;16.03
43292;BMP280;28754;47.700;7.924;2023-07-31T03:13:22;91533.84;;;16.06
43292;BMP280;28754;47.700;7.924;2023-07-31T03:16:09;91544.19;;;16.06
43292;BMP280;28754;47.700;7.924;2023-07-31T03:18:56;91547.31;;;16.03
43292;BMP280;28754;47.700;7.924;2023-07-31T03:21:42;91543.22;;;16.02
43292;BMP280;28754;47.700;7.924;2023-07-31T03:24:29;91544.56;;;16.00
43292;BMP280;28754;47.700;7.924;2023-07-31T03:27:16;91552.00;;;16.01
43292;BMP280;28754;47.700;7.924;2023-07-31T03:30:04;91546.34;;;15.99
43292;BMP280;28754;47.700;7.924;2023-07-31T03:32:52;91545.88;;;15.97
43292;BMP280;28754;47.700;7.924;2023-07-31T03:35:38;91548.66;;;16.01
43292;BMP280;28754;47.700;7.924;2023-07-31T03:38:25;91545.88;;;15.97
43292;BMP280;28754;47.700;7.924;2023-07-31T03:41:14;91553.34;;;15.99
43292;BMP280;28754;47.700;7.924;2023-07-31T03:44:00;91552.56;;;15.98
43292;BMP280;28754;47.700;7.924;2023-07-31T03:46:47;91545.31;;;16.00
43292;BMP280;28754;47.700;7.924;2023-07-31T03:49:34;91545.81;;;16.02
43292;BMP280;28754;47.700;7.924;2023-07-31T03:52:20;91535.94;;;16.04
43292;BMP280;28754;47.700;7.924;2023-07-31T03:55:10;91543.88;;;16.08
43292;BMP280;28754;47.700;7.924;2023-07-31T03:57:56;91532.78;;;16.07
43292;BMP280;28754;47.700;7.924;2023-07-31T04:05:33;91537.00;;;16.03
43292;BMP280;28754;47.700;7.924;2023-07-31T04:08:20;91542.63;;;16.05
43292;BMP280;28754;47.700;7.924;2023-07-31T04:11:06;91544.72;;;16.03
43292;BMP280;28754;47.700;7.924;2023-07-31T04:13:53;91536.50;;;16.01
43292;BMP280;28754;47.700;7.924;2023-07-31T04:16:40;91541.19;;;15.99
43292;BMP280;28754;47.700;7.924;2023-07-31T04:19:26;91546.06;;;16.01
43292;BMP280;28754;47.700;7.924;2023-07-31T04:22:13;91543.75;;;15.99
43292;BMP280;28754;47.700;7.924;2023-07-31T04:25:00;91545.88;;;15.97
43292;BMP280;28754;47.700;7.924;2023-07-31T04:27:46;91540.78;;;15.92
43292;BMP280;28754;47.700;7.924;2023-07-31T04:30:33;91554.09;;;15.99
43292;BMP280;28754;47.700;7.924;2023-07-31T04:33:19;91540.69;;;15.97
43292;BMP280;28754;47.700;7.924;2023-07-31T04:36:06;91541.75;;;15.96
43292;BMP280;28754;47.700;7.924;2023-07-31T04:38:53;91540.69;;;15.97
43292;BMP280;28754;47.700;7.924;2023-07-31T04:41:40;91536.59;;;15.96
43292;BMP280;28754;47.700;7.924;2023-07-31T04:44:26;91532.94;;;15.97
43292;BMP280;28754;47.700;7.924;2023-07-31T04:47:13;91541.66;;;16.01
43292;BMP280;28754;47.700;7.924;2023-07-31T04:50:00;91543.13;;;16.07
43292;BMP280;28754;47.700;7.924;2023-07-31T04:52:46;91544.94;;;16.07
43292;BMP280;28754;47.700;7.924;2023-07-31T04:55:33;91538.91;;;16.11
43292;BMP280;28754;47.700;7.924;2023-07-31T04:58:19;91545.31;;;16.13
43292;BMP280;28754;47.700;7.924;2023-07-31T05:01:06;91533.69;;;16.16
43292;BMP280;28754;47.700;7.924;2023-07-31T05:03:53;91549.19;;;16.16
43292;BMP280;28754;47.700;7.924;2023-07-31T05:06:41;91546.31;;;16.17
43292;BMP280;28754;47.700;7.924;2023-07-31T05:09:27;91537.50;;;16.18
43292;BMP280;28754;47.700;7.924;2023-07-31T05:12:14;91553.81;;;16.19
43292;BMP280;28754;47.700;7.924;2023-07-31T05:15:01;91552.72;;;16.20
43292;BMP280;28754;47.700;7.924;2023-07-31T05:17:47;91542.88;;;16.22
43292;BMP280;28754;47.700;7.924;2023-07-31T05:20:34;91556.88;;;16.21
43292;BMP280;28754;47.700;7.924;2023-07-31T05:23:21;91544.22;;;16.19
43292;BMP280;28754;47.700;7.924;2023-07-31T05:26:07;91556.38;;;16.19
43292;BMP280;28754;47.700;7.924;2023-07-31T05:28:56;91544.50;;;16.18
43292;BMP280;28754;47.700;7.924;2023-07-31T05:31:44;91549.41;;;16.19
43292;BMP280;28754;47.700;7.924;2023-07-31T05:34:30;91559.72;;;16.19
43292;BMP280;28754;47.700;7.924;2023-07-31T05:37:17;91557.41;;;16.18
43292;BMP280;28754;47.700;7.924;2023-07-31T05:40:05;91556.38;;;16.19
43292;BMP280;28754;47.700;7.924;2023-07-31T05:42:51;91543.75;;;16.17
43292;BMP280;28754;47.700;7.924;2023-07-31T05:45:38;91538.28;;;16.19
43292;BMP280;28754;47.700;7.924;2023-07-31T05:48:26;91534.06;;;16.23
43292;BMP280;28754;47.700;7.924;2023-07-31T05:51:13;91550.25;;;16.28
43292;BMP280;28754;47.700;7.924;2023-07-31T05:53:59;91558.97;;;16.32
43292;BMP280;28754;47.700;7.924;2023-07-31T05:56:46;91554.19;;;16.39
43292;BMP280;28754;47.700;7.924;2023-07-31T05:59:33;91539.91;;;16.42
43292;BMP280;28754;47.700;7.924;2023-07-31T06:02:19;91545.47;;;16.48
43292;BMP280;28754;47.700;7.924;2023-07-31T06:05:06;91542.88;;;16.48
43292;BMP280;28754;47.700;7.924;2023-07-31T06:07:53;91547.13;;;16.45
43292;BMP280;28754;47.700;7.924;2023-07-31T06:10:40;91554.38;;;16.43
43292;BMP280;28754;47.700;7.924;2023-07-31T06:13:27;91559.25;;;16.44
43292;BMP280;28754;47.700;7.924;2023-07-31T06:16:14;91538.56;;;16.44
43292;BMP280;28754;47.700;7.924;2023-07-31T06:19:02;91549.13;;;16.48
43292;BMP280;28754;47.700;7.924;2023-07-31T06:21:48;91541.56;;;16.51
43292;BMP280;28754;47.700;7.924;2023-07-31T06:24:35;91532.34;;;16.58
43292;BMP280;28754;47.700;7.924;2023-07-31T06:27:22;91536.88;;;16.66
43292;BMP280;28754;47.700;7.924;2023-07-31T06:30:09;91528.31;;;16.79
43292;BMP280;28754;47.700;7.924;2023-07-31T06:32:55;91541.50;;;16.91
43292;BMP280;28754;47.700;7.924;2023-07-31T06:35:42;91519.66;;;16.97
43292;BMP280;28754;47.700;7.924;2023-07-31T06:38:29;91520.03;;;17.04
43292;BMP280;28754;47.700;7.924;2023-07-31T06:41:15;91519.44;;;17.07
43292;BMP280;28754;47.700;7.924;2023-07-31T06:44:02;91512.94;;;17.09
43292;BMP280;28754;47.700;7.924;2023-07-31T06:46:49;91516.00;;;17.11
43292;BMP280;28754;47.700;7.924;2023-07-31T06:49:36;91507.91;;;17.13
43292;BMP280;28754;47.700;7.924;2023-07-31T06:52:22;91506.41;;;17.12
43292;BMP280;28754;47.700;7.924;2023-07-31T06:55:29;91508.50;;;17.10
43292;BMP280;28754;47.700;7.924;2023-07-31T06:58:16;91504.03;;;17.15
43292;BMP280;28754;47.700;7.924;2023-07-31T07:01:03;91515.22;;;17.24
43292;BMP280;28754;47.700;7.924;2023-07-31T07:03:50;91512.03;;;17.27
43292;BMP280;28754;47.700;7.924;2023-07-31T07:06:37;91521.97;;;17.33
43292;BMP280;28754;47.700;7.924;2023-07-31T07:09:23;91521.84;;;17.38
43292;BMP280;28754;47.700;7.924;2023-07-31T07:12:10;91525.88;;;17.44
43292;BMP280;28754;47.700;7.924;2023-07-31T07:14:57;91528.72;;;17.56
43292;BMP280;28754;47.700;7.924;2023-07-31T07:17:44;91535.19;;;17.67
43292;BMP280;28754;47.700;7.924;2023-07-31T07:20:30;91541.16;;;17.76
43292;BMP280;28754;47.700;7.924;2023-07-31T07:23:18;91539.53;;;17.80
43292;BMP280;28754;47.700;7.924;2023-07-31T07:26:05;91538.44;;;17.81
43292;BMP280;28754;47.700;7.924;2023-07-31T07:28:52;91539.22;;;17.81
43292;BMP280;28754;47.700;7.924;2023-07-31T07:31:39;91532.34;;;17.77
43292;BMP280;28754;47.700;7.924;2023-07-31T07:34:27;91536.56;;;17.73
43292;BMP280;28754;47.700;7.924;2023-07-31T07:37:14;91523.81;;;17.76
43292;BMP280;28754;47.700;7.924;2023-07-31T07:40:01;91524.00;;;17.80
43292;BMP280;28754;47.700;7.924;2023-07-31T07:42:47;91523.84;;;17.85
43292;BMP280;28754;47.700;7.924;2023-07-31T07:45:34;91515.47;;;17.87
43292;BMP280;28754;47.700;7.924;2023-07-31T07:48:21;91513.84;;;17.91
43292;BMP280;28754;47.700;7.924;2023-07-31T07:51:08;91509.41;;;17.92
43292;BMP280;28754;47.700;7.924;2023-07-31T07:53:55;91510.31;;;17.87
43292;BMP280;28754;47.700;7.924;2023-07-31T07:56:42;91517.72;;;17.81
43292;BMP280;28754;47.700;7.924;2023-07-31T07:59:29;91507.09;;;17.82
43292;BMP280;28754;47.700;7.924;2023-07-31T08:02:16;91509.44;;;18.00
43292;BMP280;28754;47.700;7.924;2023-07-31T08:05:03;91519.34;;;18.20
43292;BMP280;28754;47.700;7.924;2023-07-31T08:07:49;91512.50;;;18.24
43292;BMP280;28754;47.700;7.924;2023-07-31T08:10:36;91509.00;;;18.20
43292;BMP280;28754;47.700;7.924;2023-07-31T08:13:23;91513.09;;;18.21
43292;BMP280;28754;47.700;7.924;2023-07-31T08:16:09;91512.34;;;18.21
43292;BMP280;28754;47.700;7.924;2023-07-31T08:18:56;91515.69;;;18.21
43292;BMP280;28754;47.700;7.924;2023-07-31T08:21:43;91522.13;;;18.32
43292;BMP280;28754;47.700;7.924;2023-07-31T08:24:30;91518.84;;;18.48
43292;BMP280;28754;47.700;7.924;2023-07-31T08:27:16;91505.34;;;18.68
43292;BMP280;28754;47.700;7.924;2023-07-31T08:30:03;91501.72;;;18.86
43292;BMP280;28754;47.700;7.924;2023-07-31T08:32:50;91488.94;;;18.97
43292;BMP280;28754;47.700;7.924;2023-07-31T08:35:37;91490.78;;;18.97
43292;BMP280;28754;47.700;7.924;2023-07-31T08:38:24;91500.09;;;18.98
43292;BMP280;28754;47.700;7.924;2023-07-31T08:41:12;91493.81;;;18.99
43292;BMP280;28754;47.700;7.924;2023-07-31T08:44:00;91481.78;;;19.11
43292;BMP280;28754;47.700;7.924;2023-07-31T08:46:48;91486.97;;;19.28
43292;BMP280;28754;47.700;7.924;2023-07-31T08:49:38;91494.94;;;19.31
43292;BMP280;28754;47.700;7.924;2023-07-31T08:52:25;91496.44;;;19.32
43292;BMP280;28754;47.700;7.924;2023-07-31T08:55:11;91482.88;;;19.35
43292;BMP280;28754;47.700;7.924;2023-07-31T08:57:59;91501.19;;;19.39
43292;BMP280;28754;47.700;7.924;2023-07-31T09:00:47;91488.03;;;19.44
43292;BMP280;28754;47.700;7.924;2023-07-31T09:03:35;91492.16;;;19.61
43292;BMP280;28754;47.700;7.924;2023-07-31T09:06:25;91490.59;;;19.69
43292;BMP280;28754;47.700;7.924;2023-07-31T09:09:13;91483.56;;;19.78
43292;BMP280;28754;47.700;7.924;2023-07-31T09:11:59;91482.81;;;19.86
43292;BMP280;28754;47.700;7.924;2023-07-31T09:14:47;91486.97;;;19.87
43292;BMP280;28754;47.700;7.924;2023-07-31T09:17:36;91488.66;;;19.83
43292;BMP280;28754;47.700;7.924;2023-07-31T09:20:23;91481.91;;;19.82
43292;BMP280;28754;47.700;7.924;2023-07-31T09:23:14;91476.56;;;19.87
43292;BMP280;28754;47.700;7.924;2023-07-31T09:26:01;91468.25;;;20.01
43292;BMP280;28754;47.700;7.924;2023-07-31T09:28:48;91469.72;;;20.19
43292;BMP280;28754;47.700;7.924;2023-07-31T09:31:44;91468.91;;;20.27
43292;BMP280;28754;47.700;7.924;2023-07-31T09:34:38;91474.88;;;20.36
43292;BMP280;28754;47.700;7.924;2023-07-31T09:37:25;91472.06;;;20.49
43292;BMP280;28754;47.700;7.924;2023-07-31T09:40:29;91463.72;;;20.72
43292;BMP280;28754;47.700;7.924;2023-07-31T09:43:21;91455.97;;;20.84
43292;BMP280;28754;47.700;7.924;2023-07-31T09:46:13;91453.00;;;20.65
43292;BMP280;28754;47.700;7.924;2023-07-31T09:49:08;91451.19;;;20.58
43292;BMP280;28754;47.700;7.924;2023-07-31T09:51:55;91460.50;;;20.30
43292;BMP280;28754;47.700;7.924;2023-07-31T09:54:42;91449.84;;;20.23
43292;BMP280;28754;47.700;7.924;2023-07-31T09:57:29;91439.19;;;20.45
43292;BMP280;28754;47.700;7.924;2023-07-31T10:00:18;91446.16;;;20.53
43292;BMP280;28754;47.700;7.924;2023-07-31T10:03:10;91438.84;;;20.46
43292;BMP280;28754;47.700;7.924;2023-07-31T10:05:57;91440.66;;;20.54
43292;BMP280;28754;47.700;7.924;2023-07-31T10:08:49;91436.84;;;20.52
43292;BMP280;28754;47.700;7.924;2023-07-31T10:11:43;91438.88;;;20.38
43292;BMP280;28754;47.700;7.924;2023-07-31T10:14:37;91433.19;;;20.44
43292;BMP280;28754;47.700;7.924;2023-07-31T10:17:26;91426.63;;;20.47
43292;BMP280;28754;47.700;7.924;2023-07-31T10:20:15;91424.16;;;20.50
43292;BMP280;28754;47.700;7.924;2023-07-31T10:23:06;91415.78;;;20.45
43292;BMP280;28754;47.700;7.924;2023-07-31T10:25:53;91420.56;;;20.34
43292;BMP280;28754;47.700;7.924;2023-07-31T10:28:46;91413.34;;;20.40
43292;BMP280;28754;47.700;7.924;2023-07-31T10:31:34;91417.59;;;20.44
43292;BMP280;28754;47.700;7.924;2023-07-31T10:34:21;91412.50;;;20.56
43292;BMP280;28754;47.700;7.924;2023-07-31T10:37:30;91403.59;;;20.57
43292;BMP280;28754;47.700;7.924;2023-07-31T10:40:19;91413.88;;;20.54
43292;BMP280;28754;47.700;7.924;2023-07-31T10:43:23;91408.47;;;20.67
43292;BMP280;28754;47.700;7.924;2023-07-31T10:46:14;91401.88;;;20.69
43292;BMP280;28754;47.700;7.924;2023-07-31T10:49:02;91398.25;;;20.62
43292;BMP280;28754;47.700;7.924;2023-07-31T10:51:49;91399.66;;;20.60
43292;BMP280;28754;47.700;7.924;2023-07-31T10:54:36;91391.69;;;20.56
43292;BMP280;28754;47.700;7.924;2023-07-31T10:57:22;91394.19;;;20.73
43292;BMP280;28754;47.700;7.924;2023-07-31T11:00:28;91406.84;;;21.03
43292;BMP280;28754;47.700;7.924;2023-07-31T11:03:19;91413.31;;;21.37
43292;BMP280;28754;47.700;7.924;2023-07-31T11:06:09;91400.59;;;21.56
43292;BMP280;28754;47.700;7.924;2023-07-31T11:08:56;91393.84;;;21.55
43292;BMP280;28754;47.700;7.924;2023-07-31T11:11:44;91399.47;;;21.45
43292;BMP280;28754;47.700;7.924;2023-07-31T11:14:32;91396.34;;;21.52
43292;BMP280;28754;47.700;7.924;2023-07-31T11:17:18;91388.63;;;21.55
43292;BMP280;28754;47.700;7.924;2023-07-31T11:20:06;91383.31;;;21.52
43292;BMP280;28754;47.700;7.924;2023-07-31T11:22:58;91377.28;;;21.39
43292;BMP280;28754;47.700;7.924;2023-07-31T11:25:45;91376.84;;;21.37
43292;BMP280;28754;47.700;7.924;2023-07-31T11:28:34;91377.00;;;21.53
43292;BMP280;28754;47.700;7.924;2023-07-31T11:31:21;91373.69;;;21.76
43292;BMP280;28754;47.700;7.924;2023-07-31T11:34:08;91370.88;;;21.81
43292;BMP280;28754;47.700;7.924;2023-07-31T11:36:55;91369.19;;;21.97
43292;BMP280;28754;47.700;7.924;2023-07-31T11:39:42;91367.47;;;22.12
43292;BMP280;28754;47.700;7.924;2023-07-31T11:42:29;91369.06;;;22.05
43292;BMP280;28754;47.700;7.924;2023-07-31T11:45:15;91361.69;;;22.07
43292;BMP280;28754;47.700;7.924;2023-07-31T11:48:03;91360.28;;;22.21
43292;BMP280;28754;47.700;7.924;2023-07-31T11:50:51;91361.72;;;22.31
43292;BMP280;28754;47.700;7.924;2023-07-31T11:53:47;91353.56;;;22.20
43292;BMP280;28754;47.700;7.924;2023-07-31T11:56:36;91349.44;;;22.31
43292;BMP280;28754;47.700;7.924;2023-07-31T11:59:23;91347.78;;;22.38
43292;BMP280;28754;47.700;7.924;2023-07-31T12:02:10;91350.09;;;22.52
43292;BMP280;28754;47.700;7.924;2023-07-31T12:04:57;91343.44;;;22.54
43292;BMP280;28754;47.700;7.924;2023-07-31T12:07:49;91333.56;;;22.36
43292;BMP280;28754;47.700;7.924;2023-07-31T12:10:36;91342.81;;;22.34
43292;BMP280;28754;47.700;7.924;2023-07-31T12:13:25;91340.06;;;22.30
43292;BMP280;28754;47.700;7.924;2023-07-31T12:16:12;91333.66;;;22.28
43292;BMP280;28754;47.700;7.924;2023-07-31T12:18:59;91324.94;;;22.47
43292;BMP280;28754;47.700;7.924;2023-07-31T12:21:46;91334.16;;;22.69
43292;BMP280;28754;47.700;7.924;2023-07-31T12:24:34;91318.25;;;22.85
43292;BMP280;28754;47.700;7.924;2023-07-31T12:27:21;91327.56;;;22.98
43292;BMP280;28754;47.700;7.924;2023-07-31T12:30:32;91318.84;;;23.06
43292;BMP280;28754;47.700;7.924;2023-07-31T12:33:19;91311.63;;;23.15
43292;BMP280;28754;47.700;7.924;2023-07-31T12:36:15;91302.44;;;23.06
43292;BMP280;28754;47.700;7.924;2023-07-31T12:39:02;91316.47;;;23.01
43292;BMP280;28754;47.700;7.924;2023-07-31T12:41:50;91316.69;;;22.96
43292;BMP280;28754;47.700;7.924;2023-07-31T12:44:37;91303.44;;;23.01
43292;BMP280;28754;47.700;7.924;2023-07-31T12:47:24;91308.03;;;23.19
43292;BMP280;28754;47.700;7.924;2023-07-31T12:50:10;91301.19;;;23.15
43292;BMP280;28754;47.700;7.924;2023-07-31T12:52:57;91303.44;;;23.01
43292;BMP280;28754;47.700;7.924;2023-07-31T12:55:44;91295.59;;;23.01
43292;BMP280;28754;47.700;7.924;2023-07-31T12:58:31;91295.41;;;23.09
43292;BMP280;28754;47.700;7.924;2023-07-31T13:01:18;91295.59;;;23.01
43292;BMP280;28754;47.700;7.924;2023-07-31T13:04:04;91273.41;;;22.83
43292;BMP280;28754;47.700;7.924;2023-07-31T13:06:51;91274.72;;;22.77
43292;BMP280;28754;47.700;7.924;2023-07-31T13:09:38;91282.16;;;22.75
43292;BMP280;28754;47.700;7.924;2023-07-31T13:12:24;91278.84;;;22.90
43292;BMP280;28754;47.700;7.924;2023-07-31T13:15:12;91280.09;;;23.08
43292;BMP280;28754;47.700;7.924;2023-07-31T13:17:59;91290.31;;;23.13
43292;BMP280;28754;47.700;7.924;2023-07-31T13:20:46;91285.53;;;23.03
43292;BMP280;28754;47.700;7.924;2023-07-31T13:23:32;91282.28;;;23.06
43292;BMP280;28754;47.700;7.924;2023-07-31T13:26:19;91277.56;;;23.11
43292;BMP280;28754;47.700;7.924;2023-07-31T13:29:05;91269.16;;;23.18
43292;BMP280;28754;47.700;7.924;2023-07-31T13:31:52;91269.16;;;23.18
43292;BMP280;28754;47.700;7.924;2023-07-31T13:34:39;91267.91;;;23.12
43292;BMP280;28754;47.700;7.924;2023-07-31T13:37:26;91271.59;;;23.11
43292;BMP280;28754;47.700;7.924;2023-07-31T13:40:13;91266.78;;;23.13
43292;BMP280;28754;47.700;7.924;2023-07-31T13:42:59;91270.88;;;23.26
43292;BMP280;28754;47.700;7.924;2023-07-31T13:45:46;91256.03;;;23.30
43292;BMP280;28754;47.700;7.924;2023-07-31T13:48:36;91260.22;;;23.46
43292;BMP280;28754;47.700;7.924;2023-07-31T13:51:23;91247.16;;;23.61
43292;BMP280;28754;47.700;7.924;2023-07-31T13:54:10;91238.81;;;23.71
43292;BMP280;28754;47.700;7.924;2023-07-31T13:56:58;91238.47;;;23.73
43292;BMP280;28754;47.700;7.924;2023-07-31T13:59:44;91233.94;;;23.70
43292;BMP280;28754;47.700;7.924;2023-07-31T14:02:31;91245.03;;;23.67
43292;BMP280;28754;47.700;7.924;2023-07-31T14:05:18;91218.84;;;23.63
43292;BMP280;28754;47.700;7.924;2023-07-31T14:08:04;91228.63;;;23.66
43292;BMP280;28754;47.700;7.924;2023-07-31T14:10:51;91231.13;;;23.63
43292;BMP280;28754;47.700;7.924;2023-07-31T14:13:38;91231.81;;;23.60
43292;BMP280;28754;47.700;7.924;2023-07-31T14:16:24;91245.63;;;23.60
43292;BMP280;28754;47.700;7.924;2023-07-31T14:19:11;91231.56;;;23.65
43292;BMP280;28754;47.700;7.924;2023-07-31T14:22:01;91238.38;;;23.69
43292;BMP280;28754;47.700;7.924;2023-07-31T14:24:47;91227.59;;;23.71
43292;BMP280;28754;47.700;7.924;2023-07-31T14:27:34;91230.63;;;23.73
43292;BMP280;28754;47.700;7.924;2023-07-31T14:30:21;91226.41;;;23.68
43292;BMP280;28754;47.700;7.924;2023-07-31T14:33:07;91221.88;;;23.65
43292;BMP280;28754;47.700;7.924;2023-07-31T14:35:54;91218.16;;;23.66
43292;BMP280;28754;47.700;7.924;2023-07-31T14:38:41;91219.75;;;23.71
43292;BMP280;28754;47.700;7.924;2023-07-31T14:41:27;91211.41;;;23.80
43292;BMP280;28754;47.700;7.924;2023-07-31T14:44:14;91214.25;;;23.91
43292;BMP280;28754;47.700;7.924;2023-07-31T14:47:01;91226.31;;;23.95
43292;BMP280;28754;47.700;7.924;2023-07-31T14:49:47;91216.00;;;24.02
43292;BMP280;28754;47.700;7.924;2023-07-31T14:52:34;91211.25;;;24.08
43292;BMP280;28754;47.700;7.924;2023-07-31T14:55:21;91211.19;;;24.04
43292;BMP280;28754;47.700;7.924;2023-07-31T14:58:08;91205.97;;;24.04
43292;BMP280;28754;47.700;7.924;2023-07-31T15:00:57;91197.34;;;24.04
43292;BMP280;28754;47.700;7.924;2023-07-31T15:03:43;91205.19;;;24.04
43292;BMP280;28754;47.700;7.924;2023-07-31T15:06:30;91198.03;;;24.01
43292;BMP280;28754;47.700;7.924;2023-07-31T15:09:17;91200.22;;;23.99
43292;BMP280;28754;47.700;7.924;2023-07-31T15:12:04;91194.84;;;23.92
43292;BMP280;28754;47.700;7.924;2023-07-31T15:14:50;91185.00;;;23.85
43292;BMP280;28754;47.700;7.924;2023-07-31T15:17:38;91178.91;;;23.81
43292;BMP280;28754;47.700;7.924;2023-07-31T15:20:25;91176.91;;;23.75
43292;BMP280;28754;47.700;7.924;2023-07-31T15:23:11;91180.88;;;23.69
43292;BMP280;28754;47.700;7.924;2023-07-31T15:25:58;91183.31;;;23.62
43292;BMP280;28754;47.700;7.924;2023-07-31T15:28:55;91171.28;;;23.58
43292;BMP280;28754;47.700;7.924;2023-07-31T15:31:43;91177.50;;;23.53
43292;BMP280;28754;47.700;7.924;2023-07-31T15:34:30;91161.72;;;23.50
43292;BMP280;28754;47.700;7.924;2023-07-31T15:37:17;91172.16;;;23.50
43292;BMP280;28754;47.700;7.924;2023-07-31T15:40:04;91164.25;;;23.46
43292;BMP280;28754;47.700;7.924;2023-07-31T15:42:53;91173.53;;;23.44
43292;BMP280;28754;47.700;7.924;2023-07-31T15:45:40;91152.88;;;23.39
43292;BMP280;28754;47.700;7.924;2023-07-31T15:48:27;91161.50;;;23.40
43292;BMP280;28754;47.700;7.924;2023-07-31T15:51:14;91162.16;;;23.37
43292;BMP280;28754;47.700;7.924;2023-07-31T15:54:01;91161.31;;;23.33
43292;BMP280;28754;47.700;7.924;2023-07-31T15:56:48;91149.19;;;23.25
43292;BMP280;28754;47.700;7.924;2023-07-31T15:59:35;91159.53;;;23.21
43292;BMP280;28754;47.700;7.924;2023-07-31T16:02:21;91153.47;;;23.17
43292;BMP280;28754;47.700;7.924;2023-07-31T16:05:08;91142.13;;;23.10
43292;BMP280;28754;47.700;7.924;2023-07-31T16:08:37;91147.06;;;23.00
43292;BMP280;28754;47.700;7.924;2023-07-31T16:12:02;91161.88;;;22.96
43292;BMP280;28754;47.700;7.924;2023-07-31T16:15:08;91159.00;;;22.85
43292;BMP280;28754;47.700;7.924;2023-07-31T16:17:55;91148.09;;;22.83
43292;BMP280;28754;47.700;7.924;2023-07-31T16:20:42;91152.72;;;22.74
43292;BMP280;28754;47.700;7.924;2023-07-31T16:23:31;91153.91;;;22.77